createdAt,value
2019-05-28T00:01:08.253Z,94.22
2019-05-28T00:03:40.969Z,94.42
2019-05-28T00:06:13.896Z,94.49
2019-05-28T00:08:46.793Z,94.43
2019-05-28T00:11:20.184Z,94.31
2019-05-28T00:13:52.864Z,94.28
2019-05-28T00:16:25.656Z,94.24
2019-05-28T00:18:58.364Z,94.35
2019-05-28T00:21:31.316Z,94.38
2019-05-28T00:24:03.880Z,94.40
2019-05-28T00:26:36.777Z,94.37
2019-05-28T00:29:09.557Z,94.59
2019-05-28T00:31:42.345Z,94.91
2019-05-28T00:34:15.119Z,94.94
2019-05-28T00:36:48.128Z,94.75
2019-05-28T00:39:20.693Z,94.58
2019-05-28T00:41:53.583Z,94.65
2019-05-28T00:44:26.353Z,94.57
2019-05-28T00:46:59.024Z,94.56
2019-05-28T00:49:31.712Z,94.71
2019-05-28T00:52:06.237Z,94.63
2019-05-28T00:54:39.169Z,94.22
2019-05-28T00:57:12.791Z,94.03
2019-05-28T00:59:47.974Z,93.87
2019-05-28T01:02:21.973Z,93.82
2019-05-28T01:04:54.775Z,93.71
2019-05-28T01:07:27.434Z,93.82
2019-05-28T01:10:00.221Z,94.08
2019-05-28T01:12:33.798Z,94.61
2019-05-28T01:15:08.746Z,95.13
2019-05-28T01:17:41.783Z,95.68
2019-05-28T01:20:15.128Z,96.09
2019-05-28T01:22:48.531Z,96.29
2019-05-28T01:25:20.985Z,96.20
2019-05-28T01:27:54.708Z,96.07
2019-05-28T01:30:27.591Z,95.80
2019-05-28T01:33:00.268Z,95.49
2019-05-28T01:35:33.173Z,95.32
2019-05-28T01:38:08.299Z,95.19
2019-05-28T01:40:40.067Z,95.02
2019-05-28T01:43:12.724Z,94.93
2019-05-28T01:45:45.407Z,94.99
2019-05-28T01:48:18.397Z,94.98
2019-05-28T01:50:51.184Z,94.89
2019-05-28T01:53:23.575Z,94.64
2019-05-28T01:55:56.949Z,94.46
2019-05-28T01:58:29.731Z,94.78
2019-05-28T02:01:12.691Z,95.05
2019-05-28T02:03:37.034Z,95.19
2019-05-28T02:06:10.143Z,95.23
2019-05-28T02:08:43.134Z,95.22
2019-05-28T02:11:15.784Z,95.12
2019-05-28T02:13:48.598Z,94.89
2019-05-28T02:16:21.238Z,94.55
2019-05-28T02:18:54.081Z,94.67
2019-05-28T02:21:27.012Z,94.68
2019-05-28T02:24:00.304Z,94.61
2019-05-28T02:26:32.784Z,94.35
2019-05-28T02:29:05.557Z,94.09
2019-05-28T02:31:38.567Z,94.35
2019-05-28T02:34:11.135Z,94.66
2019-05-28T02:36:43.705Z,94.86
2019-05-28T02:39:16.446Z,94.84
2019-05-28T02:41:49.349Z,94.84
2019-05-28T02:44:22.048Z,94.80
2019-05-28T02:46:54.830Z,94.55
2019-05-28T02:49:27.507Z,94.27
2019-05-28T02:52:00.183Z,93.96
2019-05-28T02:54:33.161Z,93.89
2019-05-28T02:57:05.837Z,94.03
2019-05-28T02:59:38.988Z,94.09
2019-05-28T03:02:14.795Z,94.13
2019-05-28T03:04:48.369Z,94.17
2019-05-28T03:07:22.077Z,94.24
2019-05-28T03:09:56.523Z,94.27
2019-05-28T03:12:32.392Z,94.31
2019-05-28T03:15:08.449Z,94.46
2019-05-28T03:17:43.267Z,94.48
2019-05-28T03:20:16.365Z,94.32
2019-05-28T03:22:50.451Z,94.14
2019-05-28T03:25:24.186Z,94.06
2019-05-28T03:27:57.527Z,93.66
2019-05-28T03:30:30.176Z,93.39
2019-05-28T03:33:03.012Z,93.28
2019-05-28T03:35:38.446Z,93.22
2019-05-28T03:38:13.012Z,93.10
2019-05-28T03:40:47.914Z,92.96
2019-05-28T03:43:20.402Z,92.65
2019-05-28T03:45:53.500Z,92.57
2019-05-28T03:48:26.664Z,92.58
2019-05-28T03:50:59.773Z,92.66
2019-05-28T03:53:32.458Z,92.61
2019-05-28T03:56:05.031Z,92.47
2019-05-28T03:58:37.618Z,92.22
2019-05-28T04:01:10.845Z,91.93
2019-05-28T04:03:43.489Z,91.71
2019-05-28T04:06:16.550Z,91.46
2019-05-28T04:08:49.149Z,91.33
2019-05-28T04:11:22.175Z,91.07
2019-05-28T04:13:55.634Z,90.93
2019-05-28T04:16:28.298Z,90.81
2019-05-28T04:19:00.773Z,90.73
2019-05-28T04:21:33.671Z,90.61
2019-05-28T04:24:06.466Z,90.39
2019-05-28T04:26:39.237Z,90.20
2019-05-28T04:29:12.153Z,89.83
2019-05-28T04:31:45.024Z,89.61
2019-05-28T04:34:17.892Z,89.35
2019-05-28T04:36:50.469Z,88.76
2019-05-28T04:39:23.952Z,88.22
2019-05-28T04:41:56.525Z,87.74
2019-05-28T04:44:29.527Z,87.04
2019-05-28T04:47:02.125Z,86.36
2019-05-28T04:49:34.891Z,86.04
2019-05-28T04:52:07.980Z,86.00
2019-05-28T04:54:40.876Z,85.77
2019-05-28T04:57:13.339Z,85.53
2019-05-28T04:59:46.128Z,85.06
2019-05-28T05:02:19.360Z,84.74
2019-05-28T05:04:52.099Z,84.62
2019-05-28T05:07:25.270Z,84.40
2019-05-28T05:09:57.985Z,84.18
2019-05-28T05:12:30.845Z,84.06
2019-05-28T05:15:05.755Z,84.00
2019-05-28T05:17:38.346Z,84.03
2019-05-28T05:20:11.019Z,83.29
2019-05-28T05:22:43.917Z,82.90
2019-05-28T05:25:17.774Z,82.24
2019-05-28T05:27:50.188Z,82.07
2019-05-28T05:30:22.769Z,81.71
2019-05-28T05:32:55.648Z,81.29
2019-05-28T05:35:28.144Z,81.16
2019-05-28T05:38:00.697Z,80.72
2019-05-28T05:40:34.111Z,80.02
2019-05-28T05:43:06.784Z,77.79
2019-05-28T05:45:39.355Z,76.51
2019-05-28T05:48:12.154Z,75.26
2019-05-28T05:50:45.443Z,75.12
2019-05-28T05:53:18.943Z,75.43
2019-05-28T05:55:51.735Z,74.20
2019-05-28T05:58:25.408Z,73.89
2019-05-28T06:00:58.210Z,74.67
2019-05-28T06:03:40.238Z,74.72
2019-05-28T06:06:05.330Z,72.99
2019-05-28T06:08:38.221Z,71.35
2019-05-28T06:11:10.998Z,68.67
2019-05-28T06:13:43.437Z,67.76
2019-05-28T06:16:17.047Z,65.29
2019-05-28T06:18:49.750Z,61.96
2019-05-28T06:21:22.618Z,59.20
2019-05-28T06:23:55.288Z,61.04
2019-05-28T06:26:27.875Z,60.58
2019-05-28T06:29:00.748Z,59.98
2019-05-28T06:31:33.442Z,56.15
2019-05-28T06:34:06.323Z,55.47
2019-05-28T06:36:38.801Z,51.63
2019-05-28T06:39:11.580Z,52.23
2019-05-28T06:41:43.954Z,53.04
2019-05-28T06:44:16.729Z,53.89
2019-05-28T06:46:49.415Z,54.36
2019-05-28T06:49:23.403Z,55.55
2019-05-28T06:51:56.205Z,56.80
2019-05-28T06:54:29.091Z,56.99
2019-05-28T06:57:01.837Z,56.38
2019-05-28T06:59:34.549Z,56.16
2019-05-28T07:02:07.226Z,55.36
2019-05-28T07:04:39.586Z,54.78
2019-05-28T07:07:12.490Z,56.26
2019-05-28T07:09:45.157Z,55.15
2019-05-28T07:12:18.354Z,53.42
2019-05-28T07:14:50.990Z,52.91
2019-05-28T07:17:23.703Z,53.78
2019-05-28T07:19:56.198Z,52.18
2019-05-28T07:22:28.759Z,49.78
2019-05-28T07:25:01.351Z,48.85
2019-05-28T07:27:34.132Z,48.29
2019-05-28T07:30:09.868Z,49.05
2019-05-28T07:32:42.456Z,49.79
2019-05-28T07:35:16.160Z,47.61
2019-05-28T07:37:48.534Z,46.92
2019-05-28T07:40:31.227Z,46.79
2019-05-28T07:42:56.666Z,46.79
2019-05-28T07:45:29.210Z,46.77
2019-05-28T07:48:01.918Z,47.03
2019-05-28T07:50:34.698Z,46.81
2019-05-28T07:53:07.407Z,47.35
2019-05-28T07:55:40.373Z,45.77
2019-05-28T07:58:13.145Z,43.92
2019-05-28T08:00:45.984Z,42.65
2019-05-28T08:03:18.389Z,44.57
2019-05-28T08:05:51.900Z,45.00
2019-05-28T08:08:25.486Z,42.59
2019-05-28T08:10:57.872Z,40.69
2019-05-28T08:13:40.175Z,42.45
2019-05-28T08:16:17.491Z,43.07
2019-05-28T08:18:38.983Z,42.36
2019-05-28T08:21:11.588Z,43.66
2019-05-28T08:23:44.237Z,45.16
2019-05-28T08:26:16.933Z,45.53
2019-05-28T08:28:49.698Z,44.19
2019-05-28T08:31:22.275Z,44.41
2019-05-28T08:33:54.749Z,44.53
2019-05-28T08:36:27.534Z,44.07
2019-05-28T08:39:01.032Z,43.77
2019-05-28T08:41:34.330Z,44.18
2019-05-28T08:44:06.804Z,44.25
2019-05-28T08:46:39.792Z,42.27
2019-05-28T08:49:12.360Z,42.02
2019-05-28T08:51:45.025Z,42.60
2019-05-28T08:54:17.920Z,43.75
2019-05-28T08:56:50.609Z,43.32
2019-05-28T09:01:54.641Z,43.58
2019-05-28T09:04:27.196Z,44.17
2019-05-28T09:06:59.794Z,45.20
2019-05-28T09:09:32.574Z,43.99
2019-05-28T09:12:05.454Z,44.42
2019-05-28T09:14:54.980Z,44.42
2019-05-28T09:17:12.133Z,43.56
2019-05-28T09:19:44.760Z,41.66
2019-05-28T09:22:25.642Z,42.32
2019-05-28T09:24:51.501Z,44.43
2019-05-28T09:27:24.303Z,42.52
2019-05-28T09:29:56.878Z,43.53
2019-05-28T09:32:29.770Z,42.44
2019-05-28T09:35:03.039Z,42.61
2019-05-28T09:37:35.639Z,43.04
2019-05-28T09:40:09.450Z,42.67
2019-05-28T09:42:41.923Z,44.27
2019-05-28T09:45:22.509Z,44.68
2019-05-28T09:47:49.168Z,46.22
2019-05-28T09:50:30.440Z,45.52
2019-05-28T09:52:56.102Z,46.53
2019-05-28T09:55:28.799Z,45.66
2019-05-28T09:58:01.469Z,43.24
2019-05-28T10:00:37.827Z,43.20
2019-05-28T10:03:10.520Z,42.48
2019-05-28T10:05:58.270Z,42.54
2019-05-28T10:08:17.399Z,42.49
2019-05-28T10:10:50.331Z,42.72
2019-05-28T10:13:37.263Z,43.30
2019-05-28T10:15:57.000Z,39.52
2019-05-28T10:18:29.550Z,40.04
2019-05-28T10:21:17.131Z,40.99
2019-05-28T10:23:36.361Z,42.52
2019-05-28T10:26:08.731Z,42.31
2019-05-28T10:28:41.422Z,41.51
2019-05-28T10:31:14.096Z,41.76
2019-05-28T10:33:46.650Z,42.91
2019-05-28T10:36:34.308Z,42.90
2019-05-28T10:38:53.668Z,42.29
2019-05-28T10:41:26.242Z,41.35
2019-05-28T10:43:58.938Z,42.53
2019-05-28T10:46:31.789Z,43.21
2019-05-28T10:49:05.001Z,42.07
2019-05-28T10:51:37.452Z,41.13
2019-05-28T10:54:10.048Z,41.91
2019-05-28T10:56:42.609Z,42.03
2019-05-28T10:59:15.409Z,41.60
2019-05-28T11:01:48.085Z,41.02
2019-05-28T11:04:20.774Z,39.81
2019-05-28T11:06:53.572Z,40.39
2019-05-28T11:09:26.374Z,39.96
2019-05-28T11:11:58.913Z,40.71
2019-05-28T11:14:31.369Z,41.34
2019-05-28T11:17:04.066Z,41.55
2019-05-28T11:19:36.437Z,41.49
2019-05-28T11:22:09.018Z,41.00
2019-05-28T11:24:41.903Z,41.38
2019-05-28T11:27:14.576Z,40.83
2019-05-28T11:29:47.464Z,40.63
2019-05-28T11:32:20.227Z,40.79
2019-05-28T11:34:52.818Z,40.36
2019-05-28T11:37:25.708Z,39.76
2019-05-28T11:39:58.193Z,39.42
2019-05-28T11:42:31.278Z,39.02
2019-05-28T11:45:05.490Z,39.05
2019-05-28T11:47:38.146Z,39.81
2019-05-28T11:50:12.159Z,38.88
2019-05-28T11:52:44.679Z,39.06
2019-05-28T11:55:19.071Z,37.50
2019-05-28T11:57:51.961Z,37.69
2019-05-28T12:00:25.834Z,38.25
2019-05-28T12:02:58.442Z,35.92
2019-05-28T12:05:30.913Z,37.25
2019-05-28T12:08:04.871Z,38.58
2019-05-28T12:10:37.817Z,40.05
2019-05-28T12:13:12.132Z,40.98
2019-05-28T12:15:44.908Z,40.98
2019-05-28T12:18:17.501Z,40.04
2019-05-28T12:20:50.279Z,39.87
2019-05-28T12:23:23.058Z,39.18
2019-05-28T12:25:55.834Z,39.38
2019-05-28T12:28:37.424Z,39.07
2019-05-28T12:31:02.512Z,39.41
2019-05-28T12:33:35.003Z,39.18
2019-05-28T12:36:10.229Z,39.51
2019-05-28T12:38:42.698Z,39.13
2019-05-28T12:41:15.192Z,38.36
2019-05-28T12:43:47.958Z,38.79
2019-05-28T12:46:20.535Z,38.93
2019-05-28T12:48:53.334Z,38.66
2019-05-28T12:51:26.246Z,38.16
2019-05-28T12:53:58.781Z,37.09
2019-05-28T12:56:31.796Z,36.99
2019-05-28T12:59:04.463Z,37.16
2019-05-28T13:01:37.378Z,36.83
2019-05-28T13:04:10.270Z,37.14
2019-05-28T13:06:42.909Z,37.50
2019-05-28T13:09:15.588Z,36.61
2019-05-28T13:11:48.351Z,37.42
2019-05-28T13:14:21.161Z,38.08
2019-05-28T13:16:54.633Z,37.53
2019-05-28T13:19:27.312Z,37.93
2019-05-28T13:22:01.547Z,38.86
2019-05-28T13:24:34.434Z,38.64
2019-05-28T13:27:17.453Z,38.79
2019-05-28T13:29:41.122Z,37.41
2019-05-28T13:32:13.817Z,37.70
2019-05-28T13:34:48.238Z,37.62
2019-05-28T13:37:21.300Z,36.35
2019-05-28T13:39:54.201Z,36.09
2019-05-28T13:42:26.856Z,35.83
2019-05-28T13:44:59.754Z,35.81
2019-05-28T13:47:34.122Z,35.36
2019-05-28T13:50:11.746Z,34.22
2019-05-28T13:52:44.639Z,33.52
2019-05-28T13:55:17.444Z,33.27
2019-05-28T13:57:49.638Z,34.09
2019-05-28T14:00:22.809Z,33.75
2019-05-28T14:02:55.396Z,34.07
2019-05-28T14:05:27.948Z,34.86
2019-05-28T14:08:00.939Z,36.31
2019-05-28T14:10:33.504Z,36.63
2019-05-28T14:13:06.392Z,34.58
2019-05-28T14:15:39.091Z,34.24
2019-05-28T14:18:12.179Z,32.48
2019-05-28T14:20:44.832Z,31.89
2019-05-28T14:23:20.403Z,31.73
2019-05-28T14:25:53.185Z,31.63
2019-05-28T14:28:25.964Z,31.36
2019-05-28T14:31:00.445Z,30.59
2019-05-28T14:33:31.937Z,29.93
2019-05-28T14:36:06.155Z,29.49
2019-05-28T14:38:38.736Z,29.28
2019-05-28T14:41:11.750Z,30.03
2019-05-28T14:43:44.605Z,31.31
2019-05-28T14:46:17.903Z,31.23
2019-05-28T14:48:49.881Z,30.97
2019-05-28T14:51:22.333Z,31.60
2019-05-28T14:53:55.019Z,31.14
2019-05-28T14:56:27.541Z,31.33
2019-05-28T14:59:00.068Z,30.74
2019-05-28T15:01:32.539Z,30.75
2019-05-28T15:04:04.621Z,30.26
2019-05-28T15:06:36.676Z,30.56
2019-05-28T15:09:20.352Z,30.36
2019-05-28T15:11:43.157Z,30.94
2019-05-28T15:14:15.940Z,30.92
2019-05-28T15:16:50.203Z,29.30
2019-05-28T15:19:23.126Z,29.31
2019-05-28T15:21:55.481Z,31.64
2019-05-28T15:24:28.917Z,32.60
2019-05-28T15:27:01.680Z,32.83
2019-05-28T15:29:34.582Z,33.21
2019-05-28T15:32:06.854Z,31.86
2019-05-28T15:34:39.204Z,31.74
2019-05-28T15:37:12.306Z,31.38
2019-05-28T15:39:44.780Z,33.29
2019-05-28T15:42:20.702Z,34.61
2019-05-28T15:44:51.928Z,34.66
2019-05-28T15:47:23.668Z,35.52
2019-05-28T15:49:56.022Z,35.07
2019-05-28T15:52:28.794Z,34.13
2019-05-28T15:55:01.274Z,33.67
2019-05-28T15:57:34.347Z,34.62
2019-05-28T16:00:14.638Z,34.14
2019-05-28T16:02:47.278Z,33.99
2019-05-28T16:05:19.393Z,33.11
2019-05-28T16:07:51.975Z,33.22
2019-05-28T16:10:24.722Z,32.38
2019-05-28T16:12:58.014Z,33.22
2019-05-28T16:15:31.131Z,33.72
2019-05-28T16:18:03.803Z,33.69
2019-05-28T16:20:36.399Z,35.25
2019-05-28T16:23:09.569Z,36.51
2019-05-28T16:25:42.437Z,37.11
2019-05-28T16:28:14.944Z,38.84
2019-05-28T16:30:47.367Z,39.37
2019-05-28T16:33:19.850Z,40.48
2019-05-28T16:35:52.444Z,41.61
2019-05-28T16:38:25.035Z,41.41
2019-05-28T16:40:57.799Z,41.66
2019-05-28T16:43:30.380Z,42.39
2019-05-28T16:46:02.955Z,43.61
2019-05-28T16:48:35.942Z,45.14
2019-05-28T16:51:08.626Z,46.52
2019-05-28T16:53:41.305Z,47.14
2019-05-28T16:56:13.782Z,48.20
2019-05-28T16:58:46.562Z,49.33
2019-05-28T17:01:22.756Z,50.18
2019-05-28T17:03:53.130Z,50.71
2019-05-28T17:06:26.013Z,51.16
2019-05-28T17:08:58.391Z,51.54
2019-05-28T17:11:31.500Z,52.18
2019-05-28T17:14:04.392Z,52.87
2019-05-28T17:16:37.554Z,53.77
2019-05-28T17:19:10.152Z,54.48
2019-05-28T17:21:42.931Z,55.22
2019-05-28T17:24:15.488Z,55.84
2019-05-28T17:26:48.096Z,56.26
2019-05-28T17:29:21.876Z,57.01
2019-05-28T17:31:54.655Z,57.80
2019-05-28T17:34:27.243Z,58.55
2019-05-28T17:37:00.323Z,58.82
2019-05-28T17:39:33.221Z,59.02
2019-05-28T17:42:05.701Z,59.18
2019-05-28T17:44:38.587Z,59.35
2019-05-28T17:47:11.611Z,59.86
2019-05-28T17:49:44.251Z,60.39
2019-05-28T17:52:18.466Z,61.08
2019-05-28T17:54:51.255Z,61.70
2019-05-28T17:57:23.929Z,62.20
2019-05-28T17:59:56.682Z,62.83
2019-05-28T18:02:29.621Z,63.14
2019-05-28T18:05:02.692Z,63.58
2019-05-28T18:07:35.363Z,63.89
2019-05-28T18:10:10.316Z,64.59
2019-05-28T18:12:42.771Z,64.84
2019-05-28T18:15:15.540Z,65.43
2019-05-28T18:17:48.315Z,65.64
2019-05-28T18:20:20.897Z,66.18
2019-05-28T18:22:53.509Z,66.75
2019-05-28T18:25:26.353Z,66.88
2019-05-28T18:27:59.462Z,67.24
2019-05-28T18:30:32.244Z,67.49
2019-05-28T18:33:05.135Z,67.71
2019-05-28T18:35:37.619Z,68.43
2019-05-28T18:38:10.285Z,68.58
2019-05-28T18:40:43.139Z,68.60
2019-05-28T18:43:15.952Z,68.67
2019-05-28T18:45:57.942Z,68.95
2019-05-28T18:48:30.613Z,68.73
2019-05-28T18:51:03.094Z,68.77
2019-05-28T18:53:35.867Z,68.85
2019-05-28T18:56:17.353Z,69.14
2019-05-28T18:58:42.981Z,69.29
2019-05-28T19:01:15.543Z,69.33
2019-05-28T19:03:50.421Z,69.60
2019-05-28T19:06:22.963Z,69.85
2019-05-28T19:08:55.731Z,69.64
2019-05-28T19:11:37.367Z,69.58
2019-05-28T19:14:02.626Z,70.09
2019-05-28T19:16:35.331Z,70.39
2019-05-28T19:19:08.005Z,70.45
2019-05-28T19:21:40.768Z,71.10
2019-05-28T19:24:13.570Z,71.67
2019-05-28T19:26:45.953Z,72.11
2019-05-28T19:29:18.725Z,72.74
2019-05-28T19:31:51.297Z,72.30
2019-05-28T19:34:23.960Z,72.65
2019-05-28T19:36:56.964Z,73.41
2019-05-28T19:39:30.653Z,73.59
2019-05-28T19:42:03.534Z,74.18
2019-05-28T19:44:36.543Z,73.77
2019-05-28T19:47:09.218Z,74.39
2019-05-28T19:49:42.699Z,73.80
2019-05-28T19:52:20.818Z,73.39
2019-05-28T19:54:54.615Z,72.94
2019-05-28T19:57:27.292Z,73.76
2019-05-28T20:00:00.007Z,74.38
2019-05-28T20:02:32.557Z,75.29
2019-05-28T20:05:06.961Z,75.63
2019-05-28T20:07:39.448Z,74.97
2019-05-28T20:10:12.861Z,75.23
2019-05-28T20:12:45.647Z,75.45
2019-05-28T20:15:19.956Z,75.64
2019-05-28T20:17:52.824Z,76.02
2019-05-28T20:20:25.848Z,76.21
2019-05-28T20:22:58.287Z,76.42
2019-05-28T20:25:31.606Z,76.78
2019-05-28T20:28:04.078Z,76.56
2019-05-28T20:30:36.837Z,76.99
2019-05-28T20:33:09.637Z,77.09
2019-05-28T20:35:42.112Z,77.07
2019-05-28T20:38:15.011Z,77.59
2019-05-28T20:40:47.886Z,78.25
2019-05-28T20:43:20.458Z,78.88
2019-05-28T20:45:53.241Z,78.84
2019-05-28T20:48:25.924Z,78.87
2019-05-28T20:51:07.791Z,78.45
2019-05-28T20:53:36.301Z,78.70
2019-05-28T20:56:08.099Z,78.20
2019-05-28T20:58:40.960Z,78.94
2019-05-28T21:01:13.622Z,79.61
2019-05-28T21:03:47.732Z,80.07
2019-05-28T21:06:20.312Z,80.51
2019-05-28T21:08:54.117Z,80.38
2019-05-28T21:11:26.573Z,80.47
2019-05-28T21:13:59.370Z,80.35
2019-05-28T21:16:32.290Z,80.18
2019-05-28T21:19:04.785Z,80.55
2019-05-28T21:21:37.413Z,80.74
2019-05-28T21:24:10.072Z,80.39
2019-05-28T21:26:42.755Z,80.20
2019-05-28T21:29:15.537Z,80.46
2019-05-28T21:31:50.398Z,80.57
2019-05-28T21:34:23.972Z,80.56
2019-05-28T21:36:57.078Z,80.88
2019-05-28T21:39:29.756Z,81.28
2019-05-28T21:42:03.321Z,81.46
2019-05-28T21:44:35.733Z,81.64
2019-05-28T21:47:08.518Z,81.79
2019-05-28T21:49:41.194Z,82.25
2019-05-28T21:52:14.925Z,82.66
2019-05-28T21:54:47.695Z,83.02
2019-05-28T21:57:20.366Z,83.26
2019-05-28T21:59:53.599Z,82.99
2019-05-28T22:02:28.760Z,82.90
2019-05-28T22:05:06.302Z,82.98
2019-05-28T22:07:35.794Z,82.79
2019-05-28T22:10:08.908Z,83.08
2019-05-28T22:12:42.997Z,83.38
2019-05-28T22:15:16.049Z,83.76
2019-05-28T22:17:56.110Z,84.03
2019-05-28T22:20:28.962Z,84.41
2019-05-28T22:23:02.655Z,84.73
2019-05-28T22:25:35.290Z,85.15
2019-05-28T22:28:07.756Z,85.42
2019-05-28T22:30:40.436Z,85.76
2019-05-28T22:33:13.140Z,85.95
2019-05-28T22:35:45.799Z,86.19
2019-05-28T22:38:18.496Z,86.19
2019-05-28T22:40:51.174Z,85.93
2019-05-28T22:43:31.516Z,85.71
2019-05-28T22:45:59.090Z,85.61
2019-05-28T22:48:31.772Z,85.66
2019-05-28T22:51:05.593Z,85.86
2019-05-28T22:53:40.297Z,86.17
2019-05-28T22:56:12.670Z,86.30
2019-05-28T22:58:45.568Z,86.31
2019-05-28T23:01:18.447Z,86.32
2019-05-28T23:03:51.024Z,86.30
2019-05-28T23:06:23.607Z,86.10
2019-05-28T23:08:56.387Z,86.33
2019-05-28T23:11:29.173Z,86.48
2019-05-28T23:14:02.097Z,87.16
2019-05-28T23:16:34.733Z,87.50
2019-05-28T23:19:07.195Z,87.68
2019-05-28T23:21:39.889Z,87.87
2019-05-28T23:24:12.662Z,87.97
2019-05-28T23:26:45.353Z,88.39
2019-05-28T23:29:17.907Z,88.72
2019-05-28T23:31:50.809Z,88.88
2019-05-28T23:34:23.531Z,89.12
2019-05-28T23:36:56.068Z,89.08
2019-05-28T23:39:28.741Z,88.94
2019-05-28T23:42:01.435Z,88.93
2019-05-28T23:44:34.306Z,88.90
2019-05-28T23:47:07.818Z,88.71
2019-05-28T23:49:40.692Z,88.42
2019-05-28T23:52:13.360Z,88.33
2019-05-28T23:54:46.533Z,88.51
2019-05-28T23:57:19.039Z,88.56
2019-05-28T23:59:51.524Z,88.59
